Del Mar Heights (610) Station Data

Red Flag Warning: No
Fire Weather Zone: 243
SDGE Region: North Coast
Lat/Lon: 32.964/-117.223

Observations

Time Wind Speed/Gust Temp(F) RH Fuel Moist Fuel Temp(F) Dewpt(F) Tmax(F) Tmin(F) Accum Precip 10-min Precip SL Press(mb)
2/27 11:40pm 274 9 G 14 52° 100% 72.5% 52.28° 52° 57° 47.3° - - 1011.0
2/27 11:20pm 282 9 G 16 52° 100% 72.5% 52.17° 52° 57° 47.3° - - 1011.0
2/27 11:10pm 284 9 G 17 52° 100% 72.5% 52.55° 52° 57° 47.3° - - 1011.0
2/27 11:00pm 285 10 G 14 53° 100% 72.4% 52.81° 53° 57° 47.3° - - 1010.0
2/27 10:50pm 270 10 G 14 53° 100% 72.5% 52.97° 53° 57° 47.3° - - 1010.0
2/27 10:40pm 275 11 G 18 53° 100% 72.4% 53.04° 53° 57° 47.3° - - 1010.0
2/27 10:30pm 280 10 G 14 53° 100% 72.5% 53.44° 53° 57° 47.3° - - 1010.0
2/27 10:20pm 275 10 G 15 53° 100% 72.5% 53.44° 53° 57° 47.3° - - 1010.0
2/27 10:10pm 262 7 G 12 53° 100% 72.4% 53.65° 53° 57° 47.3° - - 1011.0
2/27 10:00pm 292 6 G 11 53° 100% 72.2% 53.63° 53° 57° 47.3° - - 1010.0
2/27 9:50pm 280 7 G 11 53° 100% 72.2% 53.59° 53° 57° 47.3° - - 1011.0
2/27 9:40pm 286 7 G 12 53° 100% 72.2% 53.54° 53° 57° 47.3° - - 1010.0
2/27 9:30pm 298 9 G 13 53° 100% 72% 53.63° 53° 57° 47.3° - - 1010.0
2/27 9:20pm 305 8 G 11 53° 100% 72% 53.48° 53° 57° 47.3° - - 1010.0
2/27 9:10pm 308 8 G 11 53° 100% 72% 53.33° 53° 57° 47.3° - - 1010.0
2/27 9:00pm 287 11 G 16 54° 100% 72.1% 53.62° 54° 57° 47.3° - - 1010.0
2/27 8:50pm 249 10 G 19 55° 100% 72.4% 54.32° 55° 57° 47.3° - - 1009.0
2/27 8:40pm 242 6 G 18 54° 100% 72% 54.56° 54° 57° 47.3° - - 1009.0
2/27 8:30pm 217 6 G 13 54° 100% 71.9% 54.45° 54° 57° 47.3° - - 1010.0
2/27 8:20pm 232 4 G 11 54° 100% 72.1% 54.25° 54° 57° 47.3° - - 1010.0
2/27 8:10pm 272 4 G 11 54° 100% 71.4% 54.23° 54° 57° 47.3° - - 1010.0
2/27 8:00pm 246 2 G 5 54° 100% 71.6% 54.26° 54° 57° 47.3° - - 1010.0
2/27 7:50pm 289 6 G 10 54° 100% 71.3% 54.39° 54° 57° 47.3° - - 1009.0
2/27 7:40pm 262 12 G 25 55° 100% 72.2% 54.75° 55° 57° 47.3° - - 1009.0
2/27 7:30pm 213 7 G 23 56° 100% 71.4% 55.75° 56° 57° 47.3° - - 1009.0
2/27 7:20pm 215 8 G 18 56° 100% 71.2% 55.73° 56° 57° 47.3° - - 1010.0
2/27 7:10pm 222 10 G 20 56° 100% 71.3% 55.81° 56° 57° 47.3° - - 1010.0
2/27 7:00pm 232 10 G 18 56° 100% 71.1% 55.34° 56° 57° 47.3° - - 1009.0
2/27 6:50pm 184 6 G 20 55° 100% 71% 55.49° 55° 57° 47.3° - - 1009.0
2/27 6:40pm 184 5 G 17 55° 100% 71.2% 55.13° 55° 57° 47.3° - - 1010.0
2/27 6:30pm 217 11 G 19 55° 100% 70.8% 55.41° 55° 57° 47.3° - - 1010.0
2/27 6:20pm 216 11 G 18 55° 100% 70.7% 54.97° 55° 57° 47.3° - - 1010.0
2/27 6:10pm 211 9 G 16 56° 100% 70.7% 55.3° 56° 57° 47.3° - - 1010.0
2/27 6:00pm 212 7 G 14 56° 100% 70.7% 55.81° 56° 57° 47.3° - - 1010.0
2/27 5:50pm 217 9 G 18 56° 100% 70.6% 55.88° 56° 57° 47.3° - - 1010.0
2/27 5:40pm 216 8 G 18 56° 100% 70.5% 55.86° 56° 57° 47.3° - - 1010.0
2/27 5:30pm 205 10 G 20 56° 100% 70.5% 55.88° 56° 57° 47.3° - - 1010.0
2/27 5:20pm 213 12 G 24 56° 100% 70.4% 55.9° 56° 57° 47.3° - - 1010.0
2/27 5:10pm 214 12 G 23 56° 100% 70.4% 55.68° 56° 57° 47.3° - - 1010.0
2/27 5:00pm 210 11 G 21 56° 100% 69.9% 55.64° 56° 57° 47.3° - - 1010.0
2/27 4:50pm 212 11 G 20 56° 100% 69.7% 55.54° 56° 57° 47.3° - - 1010.0
2/27 4:40pm 215 11 G 24 56° 100% 69.6% 55.41° 56° 57° 47.3° - - 1010.0
2/27 4:30pm 197 7 G 17 56° 100% 69.6% 55.79° 56° 57° 47.3° - - 1010.0
2/27 4:20pm 169 5 G 17 56° 100% 69.9% 55.67° 56° 57° 47.3° - - 1009.0
2/27 4:10pm 169 5 G 12 56° 100% 69.8% 55.84° 56° 57° 47.3° - - 1010.0
2/27 4:00pm 198 8 G 19 56° 100% 69.7% 55.97° 56° 57° 47.3° - - 1010.0
2/27 3:50pm 202 10 G 23 56° 100% 69.9% 56.01° 56° 57° 47.3° - - 1010.0
2/27 3:40pm 198 9 G 22 56° 100% 69.7% 55.9° 56° 57° 47.3° - - 1010.0
2/27 3:30pm 185 7 G 23 56° 100% 69.6% 55.88° 56° 57° 47.3° - - 1010.0
2/27 3:20pm 178 6 G 19 56° 100% 69.4% 56.03° 56° 57° 47.3° - - 1010.0
2/27 3:10pm 171 5 G 13 56° 100% 69.3% 56.24° 56° 57° 47.3° - - 1010.0
2/27 3:00pm 183 6 G 15 56° 100% 69.3% 56.2° 56° 57° 47.3° - - 1010.0
2/27 2:50pm 184 5 G 14 56° 100% 69% 56.25° 56° 57° 47.3° - - 1010.0
2/27 2:40pm 190 6 G 16 56° 100% 69% 56.4° 56° 57° 47.3° - - 1010.0
2/27 2:30pm 180 6 G 17 56° 100% 69% 56.37° 56° 57° 47.3° - - 1010.0
2/27 2:20pm 175 8 G 20 56° 100% 68.9% 56.35° 56° 57° 47.3° - - 1010.0
2/27 2:10pm 175 7 G 23 56° 100% 68.9% 56.39° 56° 56.9° 47.3° - - 1010.0
2/27 2:00pm 177 7 G 23 56° 100% 68.7% 56.33° 56° 56.8° 47.3° - - 1010.0
2/27 1:50pm 179 6 G 17 56° 100% 68.5% 56.37° 56° 56.8° 47.3° - - 1010.0
2/27 1:40pm 185 8 G 21 56° 100% 68.4% 56.27° 56° 56.7° 47.3° - - 1010.0
2/27 1:30pm 185 7 G 19 56° 100% 68.5% 56.24° 56° 56.7° 47.3° - - 1010.0
2/27 1:20pm 205 12 G 25 56° 100% 68.5% 55.94° 56° 56.7° 47.3° - - 1010.0
2/27 1:10pm 207 9 G 25 56° 100% 68.2% 55.97° 56° 56.7° 47.3° - - 1010.0
2/27 1:00pm 214 11 G 25 56° 100% 68.4% 55.9° 56° 56.7° 47.3° - - 1011.0
2/27 12:50pm 202 10 G 21 56° 100% 68.3% 56.07° 56° 56.7° 47.3° - - 1011.0
2/27 12:40pm 198 10 G 20 56° 100% 68% 56.03° 56° 56.7° 47.3° - - 1011.0
2/27 12:30pm 202 11 G 28 56° 100% 67.4% 56.16° 56° 56.7° 47.3° - - 1011.0
2/27 12:20pm 197 11 G 24 56° 100% 67.5% 56.26° 56° 56.7° 47.3° - - 1011.0
2/27 12:10pm 213 10 G 20 56° 100% 67.5% 56.35° 56° 56.7° 47.3° - - 1011.0
2/27 12:00pm 189 8 G 23 56° 100% 67.5% 56.29° 56° 56.7° 47.3° - - 1011.0
2/27 11:50am 168 5 G 15 56° 100% 67.4% 56.5° 56° 56.7° 47.3° - - 1012.0
2/27 11:40am 185 7 G 20 55° 100% 67.5% 55.85° 55° 56.7° 47.3° - - 1012.0
2/27 11:30am 195 6 G 16 55° 100% 67.3% 55.38° 55° 56.7° 47.3° - - 1012.0
2/27 11:20am 169 5 G 13 55° 100% 67.2% 55.1° 55° 56.7° 47.3° - - 1012.0
2/27 11:10am 164 7 G 15 55° 100% 67.1% 55.32° 55° 56.7° 47.3° - - 1012.0
2/27 11:00am 163 5 G 15 55° 100% 66.5% 55.68° 55° 56.7° 47.3° - - 1012.0
2/27 10:50am 164 5 G 13 55° 100% 66.6% 55.56° 55° 56.7° 47.3° - - 1012.0
2/27 10:40am 162 4 G 9 55° 100% 66.6% 55.51° 55° 56.7° 47.3° - - 1012.0
2/27 10:30am 182 6 G 15 55° 100% 66.6% 55.58° 55° 56.7° 47.3° - - 1012.0
2/27 10:20am 199 8 G 17 56° 100% 66.4% 55.77° 56° 56.7° 47.3° - - 1012.0
2/27 10:10am 199 6 G 16 56° 100% 66.4% 55.75° 56° 56.7° 47.3° - - 1012.0
2/27 10:00am 209 8 G 19 56° 100% 66.2% 55.9° 56° 56.7° 47.3° - - 1012.0
2/27 9:50am 208 10 G 25 56° 100% 66% 55.96° 56° 56.7° 47.3° - - 1012.0
2/27 9:40am 193 7 G 19 56° 100% 65.8% 56.33° 56° 56.7° 47.3° - - 1012.0
2/27 9:30am 162 6 G 19 56° 100% 65.5% 56.56° 56° 56.7° 47.3° - - 1012.0
2/27 9:20am 185 8 G 20 56° 100% 65.3% 56.41° 56° 56.7° 47.3° - - 1012.0
2/27 9:10am 193 5 G 13 56° 100% 65.2% 56.22° 56° 56.7° 47.3° - - 1012.0
2/27 9:00am 197 7 G 18 56° 100% 65.2% 56.12° 56° 56.7° 47.3° - - 1012.0
2/27 8:50am 184 6 G 20 56° 100% 64.9% 56.2° 56° 56.7° 47.3° - - 1012.0
2/27 8:40am 182 6 G 15 56° 100% 64.7% 56.2° 56° 56.7° 47.3° - - 1011.0
2/27 8:30am 181 4 G 10 56° 100% 64.6% 56.31° 56° 56.7° 47.3° - - 1012.0
2/27 8:20am 169 4 G 14 56° 100% 64.4% 56.2° 56° 56.7° 47.3° - - 1011.0
2/27 8:10am 188 6 G 13 56° 100% 64.2% 56.22° 56° 56.7° 47.3° - - 1011.0
2/27 8:00am 189 5 G 12 56° 100% 63.8% 56.22° 56° 56.7° 47.3° - - 1011.0
2/27 7:50am 185 6 G 13 56° 100% 63.5% 56.13° 56° 56.7° 47.3° - - 1011.0
2/27 7:40am 188 5 G 16 56° 100% 63.3% 56.15° 56° 56.6° 47.3° - - 1011.0
2/27 7:30am 188 7 G 21 56° 100% 63.3% 56.16° 56° 56.6° 47.3° - - 1011.0
2/27 7:20am 177 6 G 18 56° 100% 62.8% 56.03° 56° 56.5° 47.3° - - 1011.0
2/27 7:10am 183 5 G 16 56° 100% 62.8% 56° 56° 56.5° 47.3° - - 1011.0
2/27 7:00am 182 7 G 23 56° 100% 62.6% 56.04° 56° 56.5° 47.3° - - 1011.0
2/27 6:50am 193 6 G 15 56° 100% 62.2% 56.02° 56° 56.5° 47.3° - - 1011.0
2/27 6:40am 188 7 G 17 56° 100% 62.1% 56.08° 56° 56.5° 47.3° - - 1011.0
2/27 6:30am 198 7 G 20 56° 100% 61.6% 55.95° 56° 56.5° 47.3° - - 1011.0
2/27 6:20am 197 6 G 16 56° 100% 61.6% 56.08° 56° 56.5° 47.3° - - 1011.0
2/27 6:10am 177 6 G 14 56° 100% 61.2% 56.12° 56° 56.3° 47.3° - - 1011.0
2/27 6:00am 177 5 G 12 56° 100% 60.8% 55.95° 56° 56.3° 47.3° - - 1011.0
2/27 5:50am 181 6 G 16 55° 100% 60.6% 55.9° 55° 56.1° 47.3° - - 1010.0
2/27 5:40am 158 4 G 17 55° 100% 60.3% 55.37° 55° 55.8° 47.3° - - 1010.0
2/27 5:30am 176 3 G 8 54° 100% 60% 54.3° 54° 54.6° 47.3° - - 1011.0
2/27 5:20am 145 4 G 7 53° 100% 59.7% 53.21° 53° 53.5° 47.3° - - 1011.0
2/27 5:10am 133 5 G 7 52° 100% 60% 52.26° 52° 52.4° 47.3° - - 1011.0
2/27 5:00am 133 4 G 7 51° 100% 59.5% 51.62° 51° 51.8° 47.3° - - 1011.0
2/27 4:50am 117 3 G 5 50° 100% 59.1% 50.7° 50° 50.9° 47.3° - - 1011.0
2/27 4:40am 222 1 G 3 50° 100% 58.5% 50.79° 50° 50.9° 47.3° - - 1011.0
2/27 4:30am 137 4 G 8 50° 100% 58.4% 50.7° 50° 50.6° 47.3° - - 1011.0
2/27 4:20am 125 4 G 6 50° 100% 57.9% 50.4° 50° 50.3° 47.3° - - 1011.0
2/27 4:10am 109 4 G 7 49° 100% 57.1% 49.79° 49° 50.1° 47.3° - - 1011.0
2/27 4:00am 95 3 G 6 49° 100% 56.6% 49.64° 49° 50.1° 47.3° - - 1011.0
2/27 3:50am 97 3 G 5 49° 100% 56% 49.46° 49° 50.1° 47.3° - - 1011.0
2/27 3:40am 88 3 G 4 49° 100% 55.7% 49.46° 49° 50.1° 47.3° - - 1011.0
2/27 3:30am 95 4 G 5 49° 100% 55.2% 49.43° 49° 50.1° 47.3° - - 1011.0
2/27 3:20am 96 5 G 7 49° 100% 54.6% 49.16° 49° 50.1° 47.3° - - 1011.0
2/27 3:10am 96 4 G 6 48° 100% 54.1% 49.07° 48° 50.1° 47.3° - - 1012.0
2/27 3:00am 108 5 G 8 48° 100% 53.6% 48.93° 48° 50.1° 47.3° - - 1012.0
2/27 2:50am 95 5 G 8 48° 100% 52.7% 48.79° 48° 50.1° 47.3° - - 1012.0
2/27 2:40am 104 4 G 7 48° 100% 52% 48.68° 48° 50.1° 47.3° - - 1013.0
2/27 2:30am 95 4 G 6 48° 100% 51.1% 48.57° 48° 50.1° 47.3° - - 1013.0
2/27 2:20am 73 2 G 3 48° 100% 48.4% 48.45° 48° 50.1° 47.3° - - 1013.0
2/27 2:10am 75 3 G 5 48° 100% 46.3% 48.48° 48° 50.1° 47.3° - - 1013.0
2/27 2:00am 76 4 G 5 48° 100% 44.1% 48.21° 48° 50.1° 47.3° - - 1013.0
2/27 1:50am 75 4 G 6 48° 100% 42% 48.2° 48° 50.1° 47.3° - - 1013.0
2/27 1:40am 84 3 G 4 48° 100% 39.2% 48.3° 48° 50.1° 47.5° - - 1013.0
2/27 1:30am 86 3 G 4 48° 100% 34.6% 48.29° 48° 50.1° 47.5° - - 1014.0
2/27 1:20am 65 3 G 5 48° 100% 30.2% 48.34° 48° 50.1° 47.6° - - 1014.0
2/27 1:10am 110 3 G 5 49° 99% 28.7% 48.7° 49° 50.1° 48.3° - - 1014.0
2/27 1:00am 131 5 G 9 49° 96% 24.3% 48.59° 48° 50.1° 48.6° - - 1014.0
2/27 12:50am 128 6 G 9 49° 92% 21.5% 48.52° 47° 50.1° 48.8° - - 1014.0
2/27 12:40am 136 6 G 8 50° 89% 18.6% 48.57° 47° 50.1° 49° - - 1014.0
2/27 12:30am 129 5 G 7 50° 87% 16.2% 48.98° 46° 50.1° 49° - - 1014.0
2/27 12:20am 118 4 G 7 49° 87% 15.5% 49.71° 46° 50.1° 49° - - 1014.0
2/27 12:10am 135 4 G 5 50° 85% 15.4% 49.98° 45° 50.1° 49.4° - - 1014.0
2/27 12:00am 132 5 G 8 49° 85% 15.4% 49.91° 45° 59.7° 47.8° - - 1014.0
2/26 11:50pm 133 3 G 7 49° 87% 15.4% 49.14° 45° 59.7° 47.8° - - 1014.0
2/26 11:40pm 109 2 G 5 49° 86% 15.3% 48.73° 45° 59.7° 47.8° - - 1014.0
2/26 11:30pm 130 4 G 5 48° 86% 15.3% 48.96° 45° 59.7° 47.8° - - 1014.0
2/26 11:20pm 128 3 G 4 48° 86% 15.3% 48.59° 44° 59.7° 47.8° - - 1015.0
2/26 11:10pm 132 5 G 8 49° 85% 15.2% 48.16° 44° 59.7° 47.8° - - 1015.0
2/26 11:00pm 141 6 G 8 48° 87% 15.2% 47.91° 44° 59.7° 47.8° - - 1015.0
2/26 10:50pm 153 3 G 6 48° 85% 15.1% 47.75° 44° 59.7° 47.8° - - 1015.0
2/26 10:40pm 150 4 G 6 49° 83% 15.1% 48.37° 44° 59.7° 48.3° - - 1015.0
2/26 10:30pm 153 5 G 7 49° 84% 15.1% 48.43° 44° 59.7° 48.3° - - 1015.0
2/26 10:20pm 150 5 G 7 49° 81% 15% 48.12° 44° 59.7° 48.3° - - 1015.0
2/26 10:10pm 150 5 G 6 50° 78% 15% 48.37° 43° 59.7° 48.7° - - 1015.0
2/26 10:00pm 154 3 G 6 51° 75% 14.9% 48.93° 43° 59.7° 48.7° - - 1015.0
2/26 9:50pm 142 3 G 4 50° 75% 14.9% 48.41° 43° 59.7° 48.7° - - 1015.0
2/26 9:40pm 117 1 G 2 52° 70% 14.8% 47.86° 43° 59.7° 48.7° - - 1015.0
2/26 9:30pm 211 2 G 2 53° 69% 14.8% 49.71° 43° 59.7° 48.7° - - 1015.0
2/26 9:20pm 191 1 G 3 52° 69% 14.8% 49.86° 43° 59.7° 48.7° - - 1015.0
2/26 9:10pm 171 2 G 3 52° 69% 14.7% 49.78° 42° 59.7° 48.7° - - 1015.0
2/26 9:00pm 174 2 G 4 52° 68% 14.7% 49.95° 42° 59.7° 48.7° - - 1015.0
2/26 8:50pm 173 2 G 4 52° 69% 14.7% 49.73° 42° 59.7° 48.7° - - 1015.0
2/26 8:40pm 190 2 G 5 52° 69% 14.7% 49.57° 42° 59.7° 48.7° - - 1015.0
2/26 8:30pm 190 2 G 5 52° 69% 14.7% 49.75° 42° 59.7° 48.7° - - 1015.0
2/26 8:20pm 182 2 G 4 52° 71% 14.7% 49.55° 43° 59.7° 48.7° - - 1015.0
2/26 8:10pm 175 2 G 5 52° 72% 14.7% 49.5° 43° 59.7° 48.7° - - 1015.0
2/26 8:00pm 183 1 G 4 52° 73% 14.6% 49.53° 43° 59.7° 48.7° - - 1015.0
2/26 7:50pm 189 2 G 4 52° 73% 14.6% 49.77° 44° 59.7° 48.7° - - 1015.0
2/26 7:40pm 192 2 G 5 52° 73% 14.6% 50.27° 44° 59.7° 48.7° - - 1015.0
2/26 7:30pm 177 2 G 4 52° 73% 14.6% 50.31° 44° 59.7° 48.7° - - 1015.0
2/26 7:20pm 180 2 G 7 52° 73% 14.6% 50.38° 44° 59.7° 48.7° - - 1015.0
2/26 7:10pm 171 3 G 5 52° 74% 14.5% 50.54° 44° 59.7° 48.7° - - 1015.0
2/26 7:00pm 164 3 G 5 52° 74% 14.5% 50.2° 44° 59.7° 48.7° - - 1015.0
2/26 6:50pm 168 2 G 5 52° 73% 14.5% 50.52° 44° 59.7° 48.7° - - 1015.0
2/26 6:40pm 179 2 G 4 52° 73% 14.4% 51.04° 44° 59.7° 48.7° - - 1015.0
2/26 6:30pm 186 2 G 6 53° 72% 14.4% 51.78° 44° 59.7° 48.7° - - 1015.0
2/26 6:20pm 206 4 G 7 53° 72% 14.5% 52.14° 44° 59.7° 48.7° - - 1015.0
2/26 6:10pm 203 4 G 10 53° 72% 14.4% 51.72° 44° 59.7° 48.7° - - 1014.0
2/26 6:00pm 216 5 G 8 53° 72% 14.4% 51.49° 44° 59.7° 48.7° - - 1014.0
2/26 5:50pm 219 6 G 9 53° 72% 14.4% 51.92° 44° 59.7° 48.7° - - 1014.0
2/26 5:40pm 231 6 G 10 53° 72% 14.3% 51.97° 45° 59.7° 48.7° - - 1014.0
2/26 5:30pm 220 7 G 11 53° 72% 14.3% 52.46° 44° 59.7° 48.7° - - 1014.0
2/26 5:20pm 231 6 G 11 54° 71% 14.3% 52.86° 45° 59.7° 48.7° - - 1014.0
2/26 5:10pm 243 8 G 13 54° 70% 14.3% 53.63° 45° 59.7° 48.7° - - 1014.0
2/26 5:00pm 245 8 G 14 54° 71% 14.3% 54.25° 45° 59.7° 48.7° - - 1014.0